Time;durP1;ratioP1;P1;durP2;ratioP2;P2;SDS_P1;SDS_P2;PMS_P1;PMS_P2;Temp;Humidity;BMP_temperature;BMP_pressure;BME280_temperature;BME280_humidity;BME280_pressure;Samples;Min_cycle;Max_cycle;Signal;HPM_P1;HPM_P2
2023/01/04 10:57:58;;;;;;;3.33;3.03;;;6.50;99.90;;;;;;5072827;28;20543;-80
2023/01/04 11:00:33;;;;;;;5.10;3.17;;;6.60;99.90;;;;;;5070564;28;20207;-80
2023/01/04 11:03:19;;;;;;;3.15;2.90;;;6.60;99.90;;;;;;5070657;28;20192;-80
2023/01/04 11:05:56;;;;;;;3.15;2.88;;;6.60;99.90;;;;;;5069708;28;20181;-80
2023/01/04 11:08:36;;;;;;;3.20;2.90;;;6.70;99.90;;;;;;5069818;28;20208;-80
2023/01/04 11:11:12;;;;;;;5.38;3.67;;;6.70;99.90;;;;;;5069617;28;20204;-80
2023/01/04 11:13:38;;;;;;;7.63;4.13;;;6.80;99.90;;;;;;5069652;28;20586;-80
2023/01/04 11:16:05;;;;;;;4.80;3.17;;;6.80;99.90;;;;;;5069481;28;20217;-80
2023/01/04 11:18:31;;;;;;;3.72;3.33;;;6.80;99.90;;;;;;5070078;28;20170;-80
2023/01/04 11:21:00;;;;;;;5.15;3.50;;;6.80;99.90;;;;;;5069477;28;20186;-80
2023/01/04 11:23:26;;;;;;;4.00;3.60;;;6.80;99.90;;;;;;5069308;28;20180;-80
2023/01/04 11:25:56;;;;;;;3.40;3.10;;;6.80;99.90;;;;;;5069333;28;20177;-79
2023/01/04 11:28:27;;;;;;;3.17;2.90;;;6.90;99.90;;;;;;5070861;28;20641;-79
2023/01/04 11:31:21;;;;;;;3.47;3.08;;;6.80;99.90;;;;;;5069192;28;20189;-80
2023/01/04 11:34:00;;;;;;;2.83;2.50;;;6.80;99.90;;;;;;5070086;28;20189;-80
2023/01/04 11:36:35;;;;;;;2.60;2.40;;;6.80;99.90;;;;;;5069186;28;20216;-79
2023/01/04 11:39:01;;;;;;;4.15;2.85;;;6.90;99.90;;;;;;5070180;28;20185;-80
2023/01/04 11:41:27;;;;;;;3.92;2.80;;;6.80;99.90;;;;;;5069336;28;20624;-80
2023/01/04 11:44:17;;;;;;;3.60;2.53;;;6.90;99.90;;;;;;5069023;28;20193;-80
2023/01/04 11:46:42;;;;;;;4.22;2.63;;;6.90;99.90;;;;;;5070698;28;20198;-80
2023/01/04 11:49:18;;;;;;;4.07;2.63;;;6.80;99.90;;;;;;5069123;28;20264;-80
2023/01/04 11:51:44;;;;;;;3.53;2.80;;;6.80;99.90;;;;;;5069532;28;20227;-80
2023/01/04 11:54:18;;;;;;;4.25;3.13;;;6.80;99.90;;;;;;5068754;28;20181;-80
2023/01/04 11:57:16;;;;;;;2.67;2.47;;;6.80;99.90;;;;;;5068845;28;20221;-80
2023/01/04 11:59:42;;;;;;;5.57;2.65;;;6.90;99.90;;;;;;5068574;28;20208;-80
2023/01/04 12:02:24;;;;;;;4.00;3.60;;;6.90;99.90;;;;;;5069970;28;20207;-80
2023/01/04 12:04:52;;;;;;;5.13;3.92;;;6.90;99.90;;;;;;5068466;28;20177;-80
2023/01/04 12:07:32;;;;;;;5.85;4.63;;;6.90;99.90;;;;;;5065513;28;20244;-80
2023/01/04 12:09:59;;;;;;;6.43;4.22;;;6.90;99.90;;;;;;5055464;28;20751;-80
2023/01/04 12:12:29;;;;;;;7.18;5.93;;;6.90;99.90;;;;;;5055443;28;20184;-81
2023/01/04 12:14:56;;;;;;;4.68;4.20;;;6.90;99.90;;;;;;5055022;28;20206;-80
2023/01/04 12:17:28;;;;;;;4.90;4.40;;;7.00;99.90;;;;;;5054984;28;20240;-80
2023/01/04 12:19:55;;;;;;;4.60;3.05;;;7.00;99.90;;;;;;5055081;28;20163;-80
2023/01/04 12:22:39;;;;;;;4.32;3.10;;;7.00;99.90;;;;;;5055602;28;20185;-80
2023/01/04 12:25:25;;;;;;;4.40;4.00;;;7.00;99.90;;;;;;5057140;28;20190;-80
2023/01/04 12:27:51;;;;;;;3.50;3.20;;;7.00;99.90;;;;;;5048441;28;20237;-80
2023/01/04 12:30:40;;;;;;;4.65;3.65;;;7.00;99.90;;;;;;5055147;28;20215;-80
2023/01/04 12:33:31;;;;;;;2.90;2.70;;;7.10;99.90;;;;;;5054943;28;20325;-80
2023/01/04 12:35:59;;;;;;;4.97;3.15;;;7.10;99.90;;;;;;5054528;28;20217;-80
2023/01/04 12:38:53;;;;;;;3.60;3.15;;;7.10;99.90;;;;;;5054862;28;20206;-81
2023/01/04 12:41:23;;;;;;;7.30;4.30;;;7.10;99.90;;;;;;5056588;28;20193;-80
2023/01/04 12:43:49;;;;;;;5.55;3.58;;;7.10;99.90;;;;;;5054553;28;20174;-80
2023/01/04 12:49:26;;;;;;;3.58;3.10;;;7.10;99.90;;;;;;5056068;28;20284;-81
2023/01/04 12:52:07;;;;;;;3.80;3.50;;;7.20;99.90;;;;;;5055983;28;20177;-80
2023/01/04 12:54:45;;;;;;;4.72;3.40;;;7.20;99.90;;;;;;5055162;28;20224;-80
2023/01/04 12:57:22;;;;;;;4.38;2.88;;;7.10;99.90;;;;;;5054776;28;20249;-80
2023/01/04 13:00:04;;;;;;;3.95;2.58;;;7.20;99.90;;;;;;5055265;28;20260;-80
2023/01/04 13:02:32;;;;;;;5.57;2.63;;;7.20;99.90;;;;;;5054261;28;20273;-80
2023/01/04 13:05:22;;;;;;;2.30;2.10;;;7.20;99.90;;;;;;5054149;28;20658;-79
2023/01/04 13:07:54;;;;;;;2.50;2.10;;;7.30;99.90;;;;;;5054199;28;20213;-80
2023/01/04 13:10:19;;;;;;;2.25;2.05;;;7.30;99.90;;;;;;5054766;28;20227;-79
2023/01/04 13:13:00;;;;;;;2.28;2.08;;;7.30;99.90;;;;;;5054104;28;20261;-80
2023/01/04 13:15:46;;;;;;;3.85;2.03;;;7.40;99.90;;;;;;5054277;28;20167;-79
2023/01/04 13:18:32;;;;;;;4.60;2.45;;;7.40;99.90;;;;;;5054447;28;20175;-80
2023/01/04 13:21:09;;;;;;;2.90;2.40;;;7.40;99.90;;;;;;5054426;28;20253;-80
2023/01/04 13:23:35;;;;;;;2.00;1.90;;;7.40;99.90;;;;;;5054990;28;20188;-80
2023/01/04 13:26:27;;;;;;;2.60;2.22;;;7.50;99.90;;;;;;5054098;28;20174;-79
2023/01/04 13:29:07;;;;;;;3.47;2.28;;;7.50;99.90;;;;;;5055359;28;20170;-79
2023/01/04 13:32:01;;;;;;;2.25;2.10;;;7.50;99.90;;;;;;5054132;28;20197;-80
2023/01/04 13:34:33;;;;;;;4.25;2.30;;;7.50;99.90;;;;;;5054417;28;20190;-79
2023/01/04 13:37:14;;;;;;;2.40;2.20;;;7.50;99.90;;;;;;5053990;28;20228;-79
2023/01/04 13:39:46;;;;;;;2.00;1.90;;;7.50;99.90;;;;;;5053895;28;20178;-80
2023/01/04 13:42:36;;;;;;;2.30;2.10;;;7.50;99.90;;;;;;5055623;28;20261;-80
2023/01/04 13:45:13;;;;;;;2.60;2.28;;;7.60;99.90;;;;;;5054690;28;20257;-80
2023/01/04 13:47:41;;;;;;;3.17;2.17;;;7.60;99.90;;;;;;5054748;28;20198;-80
2023/01/04 13:50:32;;;;;;;3.60;2.20;;;7.60;99.90;;;;;;5053589;28;20178;-79
2023/01/04 13:52:58;;;;;;;3.35;2.30;;;7.70;99.90;;;;;;5053552;28;20177;-79
2023/01/04 13:55:27;;;;;;;3.00;2.17;;;7.70;99.90;;;;;;5053225;28;20623;-79
2023/01/04 13:57:58;;;;;;;2.58;2.05;;;7.70;99.90;;;;;;5053246;28;20267;-79
2023/01/04 14:00:30;;;;;;;2.33;2.10;;;7.70;99.90;;;;;;5054464;28;20276;-79
2023/01/04 14:06:25;;;;;;;2.47;1.90;;;7.80;99.90;;;;;;5054927;28;20209;-79
2023/01/04 14:09:14;;;;;;;1.90;1.80;;;7.80;99.90;;;;;;5054140;28;20177;-79
2023/01/04 14:12:14;;;;;;;2.78;2.17;;;7.80;99.90;;;;;;5053042;28;20521;-79
2023/01/04 14:14:46;;;;;;;2.20;2.00;;;7.90;99.90;;;;;;5045500;28;20189;-79
2023/01/04 14:17:11;;;;;;;2.95;2.00;;;7.90;99.90;;;;;;5053508;28;20217;-80
2023/01/04 14:19:50;;;;;;;2.35;2.03;;;7.80;99.90;;;;;;5052921;28;20175;-80
2023/01/04 14:22:24;;;;;;;1.92;1.83;;;7.90;99.90;;;;;;5053149;28;20220;-80
2023/01/04 14:24:53;;;;;;;1.83;1.73;;;7.80;99.90;;;;;;5053934;28;20176;-78
2023/01/04 14:27:35;;;;;;;3.38;1.90;;;7.80;99.90;;;;;;5053217;28;20228;-78
2023/01/04 14:30:16;;;;;;;2.33;1.80;;;7.80;99.90;;;;;;5053048;28;20228;-78
2023/01/04 14:32:56;;;;;;;3.28;1.95;;;7.80;99.90;;;;;;5054527;28;20174;-78
2023/01/04 14:35:22;;;;;;;2.35;2.00;;;7.80;99.90;;;;;;5054171;28;20166;-78
2023/01/04 14:37:49;;;;;;;2.45;2.00;;;7.80;99.90;;;;;;5052870;28;20244;-78
2023/01/04 14:40:23;;;;;;;2.50;1.83;;;7.80;99.90;;;;;;5053435;28;20614;-78
2023/01/04 14:42:49;;;;;;;3.67;1.92;;;7.80;99.90;;;;;;5053862;28;20173;-78
2023/01/04 14:45:15;;;;;;;2.25;1.80;;;7.80;99.90;;;;;;5053242;28;20178;-78
2023/01/04 14:47:43;;;;;;;2.08;1.83;;;7.80;99.90;;;;;;5052939;28;20197;-78
2023/01/04 14:50:11;;;;;;;3.50;1.90;;;7.80;99.90;;;;;;5053488;28;20178;-78
2023/01/04 14:52:37;;;;;;;2.50;1.73;;;7.70;99.90;;;;;;5054432;28;20174;-78
2023/01/04 14:55:03;;;;;;;1.67;1.58;;;7.70;99.90;;;;;;5053082;28;20236;-78
2023/01/04 14:57:29;;;;;;;2.10;2.00;;;7.70;99.90;;;;;;5053198;28;20214;-78
2023/01/04 14:59:55;;;;;;;2.10;1.73;;;7.70;99.90;;;;;;5053094;28;20212;-78
2023/01/04 15:02:22;;;;;;;2.63;1.80;;;7.70;99.90;;;;;;5053732;28;20178;-78
2023/01/04 15:04:47;;;;;;;1.95;1.85;;;7.70;99.90;;;;;;5052951;28;20192;-78
2023/01/04 15:07:31;;;;;;;2.05;1.92;;;7.70;99.90;;;;;;5054241;28;20209;-78
2023/01/04 15:09:57;;;;;;;2.08;1.52;;;7.70;99.90;;;;;;5054793;28;20170;-78
2023/01/04 15:12:22;;;;;;;4.72;2.17;;;7.70;99.90;;;;;;5053098;28;20171;-78
2023/01/04 15:14:48;;;;;;;2.33;2.05;;;7.70;99.90;;;;;;5054076;28;20171;-78
2023/01/04 15:17:14;;;;;;;3.55;2.25;;;7.70;99.90;;;;;;5053038;28;20198;-78
2023/01/04 15:19:39;;;;;;;2.08;1.83;;;7.70;99.90;;;;;;5052597;28;20204;-78
2023/01/04 15:22:05;;;;;;;2.40;2.20;;;7.70;99.90;;;;;;5052462;28;20174;-79
2023/01/04 15:24:50;;;;;;;1.90;1.80;;;7.70;99.90;;;;;;5052455;28;20177;-79
2023/01/04 15:27:16;;;;;;;2.22;2.10;;;7.60;99.90;;;;;;5052553;28;20217;-79
2023/01/04 15:29:42;;;;;;;1.80;1.70;;;7.70;99.90;;;;;;5052098;28;20182;-79
2023/01/04 15:32:08;;;;;;;1.80;1.70;;;7.70;99.90;;;;;;5053352;28;20174;-80
2023/01/04 15:34:34;;;;;;;1.42;1.42;;;7.70;99.90;;;;;;5053389;28;20177;-79
2023/01/04 15:36:59;;;;;;;1.67;1.58;;;7.70;99.90;;;;;;5052509;28;20194;-79
2023/01/04 15:39:25;;;;;;;1.60;1.50;;;7.70;99.90;;;;;;5052042;28;20181;-79
2023/01/04 15:44:34;;;;;;;1.63;1.52;;;7.70;99.90;;;;;;5057600;28;20205;-79
2023/01/04 15:47:00;;;;;;;2.10;2.00;;;7.70;99.90;;;;;;5055807;28;20213;-79
2023/01/04 15:49:28;;;;;;;2.40;2.30;;;7.70;99.90;;;;;;5055713;28;20258;-82
2023/01/04 15:51:53;;;;;;;7.13;5.93;;;7.70;99.90;;;;;;5056794;28;20603;-80
2023/01/04 15:54:20;;;;;;;49.08;36.55;;;7.70;99.90;;;;;;5055637;28;20217;-79
2023/01/04 15:56:46;;;;;;;35.70;27.10;;;7.70;99.90;;;;;;5055241;28;20225;-79
2023/01/04 15:59:52;;;;;;;16.27;13.90;;;7.80;99.90;;;;;;5056661;28;20178;-79
2023/01/04 16:02:17;;;;;;;16.58;14.77;;;7.80;99.90;;;;;;5056493;28;20190;-79
2023/01/04 16:04:44;;;;;;;12.52;11.23;;;7.80;99.90;;;;;;5057010;28;20182;-79
2023/01/04 16:07:10;;;;;;;7.53;6.82;;;7.80;99.90;;;;;;5055864;28;20221;-79
2023/01/04 16:09:36;;;;;;;18.02;15.70;;;7.80;99.90;;;;;;5056608;28;20178;-79
2023/01/04 16:14:46;;;;;;;15.02;12.88;;;7.80;99.90;;;;;;5057034;28;20564;-79
2023/01/04 16:17:12;;;;;;;25.80;22.33;;;7.80;99.90;;;;;;5055367;28;20198;-79
2023/01/04 16:19:37;;;;;;;19.77;15.50;;;7.90;99.90;;;;;;5055772;28;20174;-79
2023/01/04 16:22:03;;;;;;;22.63;19.48;;;7.90;99.90;;;;;;5055722;28;20224;-79
2023/01/04 16:24:28;;;;;;;18.38;15.65;;;7.90;99.90;;;;;;5055490;28;20232;-79
2023/01/04 16:26:54;;;;;;;16.50;14.00;;;7.90;99.90;;;;;;5055340;28;20209;-79
2023/01/04 16:29:20;;;;;;;15.60;14.07;;;7.90;99.90;;;;;;5057414;28;20274;-79
2023/01/04 16:31:45;;;;;;;15.82;12.15;;;7.90;99.90;;;;;;5056075;28;20239;-82
2023/01/04 16:34:12;;;;;;;21.20;19.08;;;7.90;99.90;;;;;;5064045;28;20178;-78
2023/01/04 16:36:38;;;;;;;10.70;9.77;;;8.00;99.90;;;;;;5067108;28;20209;-78
2023/01/04 16:39:07;;;;;;;5.20;4.80;;;8.00;99.90;;;;;;5068496;28;20191;-78
2023/01/04 16:41:33;;;;;;;3.42;3.13;;;8.00;99.90;;;;;;5069239;28;20266;-78
2023/01/04 16:44:00;;;;;;;3.00;2.80;;;8.00;99.90;;;;;;5067957;28;20186;-78
2023/01/04 16:46:44;;;;;;;3.03;2.83;;;8.10;99.90;;;;;;5068870;28;20269;-78
2023/01/04 16:49:14;;;;;;;2.97;2.50;;;8.10;99.90;;;;;;5067268;28;20163;-78
2023/01/04 16:51:41;;;;;;;3.50;3.20;;;8.10;99.90;;;;;;5064792;28;20158;-78
2023/01/04 16:54:09;;;;;;;3.47;3.22;;;8.10;99.90;;;;;;5062658;28;20175;-79
2023/01/04 16:56:36;;;;;;;3.25;2.90;;;8.10;99.90;;;;;;5063301;28;20226;-79
2023/01/04 16:59:02;;;;;;;3.22;3.03;;;8.20;99.90;;;;;;5063212;28;20182;-79
2023/01/04 17:01:30;;;;;;;4.18;3.10;;;8.20;99.90;;;;;;5063456;28;20174;-79
2023/01/04 17:03:59;;;;;;;2.67;2.25;;;8.20;99.90;;;;;;5064119;28;20189;-79
2023/01/04 17:06:30;;;;;;;2.83;2.20;;;8.20;99.90;;;;;;5063754;28;20221;-79
2023/01/04 17:08:58;;;;;;;2.42;1.92;;;8.20;99.90;;;;;;5063734;28;20173;-79
2023/01/04 17:11:29;;;;;;;2.78;2.10;;;8.20;99.90;;;;;;5063246;28;20222;-79
2023/01/04 17:13:55;;;;;;;2.35;2.13;;;8.30;99.90;;;;;;5061179;28;20159;-78
2023/01/04 17:16:21;;;;;;;2.10;1.90;;;8.30;99.90;;;;;;5062077;28;20206;-79
2023/01/04 17:18:52;;;;;;;1.90;1.80;;;8.30;99.90;;;;;;5065491;28;20182;-79
2023/01/04 17:21:22;;;;;;;2.30;1.98;;;8.30;99.90;;;;;;5062249;28;20189;-79
2023/01/04 17:23:49;;;;;;;2.00;1.90;;;8.40;99.90;;;;;;5064416;28;20165;-78
2023/01/04 17:26:20;;;;;;;2.08;1.98;;;8.40;99.90;;;;;;5063125;28;20210;-78
2023/01/04 17:28:46;;;;;;;2.00;1.90;;;8.40;99.90;;;;;;5063652;28;20193;-78
2023/01/04 17:31:18;;;;;;;1.80;1.67;;;8.40;99.90;;;;;;5062512;28;20174;-78
2023/01/04 17:33:45;;;;;;;1.60;1.50;;;8.40;99.90;;;;;;5062637;28;20209;-78
2023/01/04 17:36:12;;;;;;;2.00;1.90;;;8.50;99.90;;;;;;5062054;28;20202;-78
2023/01/04 17:38:38;;;;;;;2.03;1.90;;;8.50;99.90;;;;;;5063636;28;20185;-78
2023/01/04 17:41:15;;;;;;;44.05;32.05;;;8.50;99.90;;;;;;5063189;28;20178;-78
2023/01/04 17:43:43;;;;;;;3.80;3.50;;;8.50;99.90;;;;;;5060659;28;20166;-80
2023/01/04 17:46:11;;;;;;;3.95;3.65;;;8.50;99.90;;;;;;5062112;28;20202;-79
2023/01/04 17:48:37;;;;;;;8.77;7.88;;;8.50;99.90;;;;;;5061075;28;20179;-79
2023/01/04 17:51:21;;;;;;;4.90;4.47;;;8.60;99.90;;;;;;5060723;28;20659;-78
2023/01/04 17:53:52;;;;;;;6.38;5.78;;;8.50;99.90;;;;;;5060833;28;20165;-79
2023/01/04 17:56:17;;;;;;;6.20;5.72;;;8.50;99.90;;;;;;5061219;28;20260;-79
2023/01/04 17:58:44;;;;;;;18.02;16.23;;;8.50;99.90;;;;;;5060404;28;20182;-79
2023/01/04 18:01:24;;;;;;;16.10;14.60;;;8.60;99.90;;;;;;5060848;28;20178;-79
2023/01/04 18:03:52;;;;;;;18.70;17.00;;;8.60;99.90;;;;;;5060827;28;20178;-79
2023/01/04 18:06:20;;;;;;;17.08;15.57;;;8.60;99.90;;;;;;5060313;28;20221;-79
2023/01/04 18:08:46;;;;;;;36.03;32.38;;;8.60;99.90;;;;;;5060696;28;20176;-79
2023/01/04 18:11:12;;;;;;;23.23;21.10;;;8.60;99.90;;;;;;5060848;28;20210;-78
2023/01/04 18:13:41;;;;;;;26.10;23.60;;;8.70;99.90;;;;;;5059828;28;20174;-78
2023/01/04 18:16:11;;;;;;;18.15;16.48;;;8.70;99.90;;;;;;5058939;28;20216;-80
2023/01/04 18:18:36;;;;;;;15.23;13.73;;;8.70;99.90;;;;;;5060546;28;20268;-79
2023/01/04 18:21:14;;;;;;;10.93;10.02;;;8.70;99.90;;;;;;5059651;28;20241;-79
2023/01/04 18:23:40;;;;;;;14.52;13.00;;;8.70;99.90;;;;;;5060127;28;20170;-79
2023/01/04 18:26:06;;;;;;;10.23;9.23;;;8.70;99.90;;;;;;5059297;28;20214;-79
2023/01/04 18:28:33;;;;;;;11.65;10.65;;;8.70;99.90;;;;;;5061295;28;20174;-79
2023/01/04 18:30:59;;;;;;;9.93;9.10;;;8.70;99.90;;;;;;5058761;28;20217;-79
2023/01/04 18:33:25;;;;;;;6.88;6.28;;;8.70;99.90;;;;;;5060119;28;20176;-79
2023/01/04 18:35:51;;;;;;;7.63;5.60;;;8.70;99.90;;;;;;5058755;28;20233;-79
2023/01/04 18:38:16;;;;;;;5.78;5.25;;;8.80;99.90;;;;;;5059564;28;20192;-79
2023/01/04 18:40:42;;;;;;;4.15;3.80;;;8.80;99.90;;;;;;5058944;28;20178;-79
2023/01/04 18:43:07;;;;;;;16.38;14.88;;;8.80;99.90;;;;;;5059446;28;20182;-79
2023/01/04 18:45:38;;;;;;;11.73;10.73;;;8.80;99.90;;;;;;5057915;28;20170;-79
2023/01/04 18:48:04;;;;;;;8.48;7.68;;;8.80;99.90;;;;;;5056721;28;20236;-78
2023/01/04 18:50:30;;;;;;;9.13;8.43;;;8.80;99.90;;;;;;5057730;28;20190;-78
2023/01/04 18:52:55;;;;;;;8.18;7.50;;;8.80;99.90;;;;;;5057881;28;20174;-78
2023/01/04 18:55:21;;;;;;;29.52;26.92;;;8.80;99.90;;;;;;5057542;28;20265;-78
2023/01/04 18:57:46;;;;;;;17.42;15.88;;;8.80;99.90;;;;;;5056233;28;20252;-78
2023/01/04 19:00:12;;;;;;;9.07;8.18;;;8.80;99.90;;;;;;5055595;28;20185;-78
2023/01/04 19:02:38;;;;;;;4.53;4.22;;;8.80;99.90;;;;;;5055256;28;20409;-78
2023/01/04 19:05:17;;;;;;;7.60;7.00;;;8.80;99.90;;;;;;5056089;28;20178;-78
2023/01/04 19:07:43;;;;;;;8.23;7.53;;;8.80;99.90;;;;;;5057189;28;20217;-78
2023/01/04 19:10:13;;;;;;;7.35;6.40;;;8.80;99.90;;;;;;5054998;28;20174;-78
2023/01/04 19:12:39;;;;;;;4.40;4.00;;;8.80;99.90;;;;;;5055050;28;20267;-78
2023/01/04 19:15:10;;;;;;;5.32;4.93;;;8.90;99.90;;;;;;5055055;28;20774;-78
2023/01/04 19:17:36;;;;;;;7.55;5.55;;;8.90;99.90;;;;;;5056555;28;20217;-79
2023/01/04 19:20:01;;;;;;;15.20;13.85;;;8.90;99.90;;;;;;5061020;28;20166;-79
2023/01/04 19:22:27;;;;;;;6.55;6.15;;;8.90;99.90;;;;;;5061254;28;20188;-78
2023/01/04 19:24:52;;;;;;;13.68;12.57;;;8.90;99.90;;;;;;5059670;28;20261;-78
2023/01/04 19:27:19;;;;;;;9.95;9.15;;;8.90;99.90;;;;;;5059646;28;20305;-79
2023/01/04 19:29:45;;;;;;;21.40;19.70;;;8.90;99.90;;;;;;5061006;28;20266;-79
2023/01/04 19:32:10;;;;;;;15.13;13.88;;;8.80;99.90;;;;;;5061161;28;20206;-79
2023/01/04 19:34:36;;;;;;;24.60;22.50;;;8.80;99.90;;;;;;5059211;28;20174;-79
2023/01/04 19:37:02;;;;;;;10.35;9.55;;;8.90;99.90;;;;;;5059654;28;20205;-79
2023/01/04 19:39:28;;;;;;;5.30;4.90;;;8.90;99.90;;;;;;5058842;28;20329;-79
2023/01/04 19:41:53;;;;;;;6.35;5.85;;;9.00;99.90;;;;;;5059284;28;20178;-79
2023/01/04 19:44:19;;;;;;;4.07;3.25;;;9.00;99.90;;;;;;5059586;28;20186;-78
2023/01/04 19:46:44;;;;;;;3.47;3.20;;;9.10;99.90;;;;;;5059098;28;20228;-78
2023/01/04 19:49:10;;;;;;;5.68;5.22;;;9.10;99.90;;;;;;5059689;28;20170;-79
2023/01/04 19:51:36;;;;;;;9.88;8.98;;;9.10;99.90;;;;;;5059397;28;20217;-79
2023/01/04 19:54:04;;;;;;;4.18;3.75;;;9.10;99.90;;;;;;5058700;28;20220;-79
2023/01/04 19:56:30;;;;;;;2.13;1.92;;;9.10;99.90;;;;;;5058963;28;20218;-79
2023/01/04 19:58:55;;;;;;;7.35;6.75;;;9.10;99.90;;;;;;5060243;28;20224;-79
2023/01/04 20:01:22;;;;;;;6.15;5.68;;;9.10;99.90;;;;;;5059171;28;20242;-79
2023/01/04 20:03:48;;;;;;;8.77;8.18;;;9.10;99.90;;;;;;5059968;28;20186;-79
2023/01/04 20:06:15;;;;;;;5.40;5.00;;;9.10;99.90;;;;;;5059041;28;20210;-79
2023/01/04 20:08:41;;;;;;;3.38;3.17;;;9.10;99.90;;;;;;5058863;28;20181;-79
2023/01/04 20:11:07;;;;;;;5.10;4.70;;;9.10;99.90;;;;;;5058893;28;20182;-79
2023/01/04 20:13:33;;;;;;;3.45;3.25;;;9.10;99.90;;;;;;5059727;28;20281;-79
2023/01/04 20:16:00;;;;;;;4.60;4.30;;;9.10;99.90;;;;;;5060690;28;20596;-79
2023/01/04 20:18:26;;;;;;;2.65;1.70;;;9.10;99.90;;;;;;5060516;28;20233;-79
2023/01/04 20:20:52;;;;;;;3.17;2.97;;;9.10;99.90;;;;;;5061014;28;20213;-79
2023/01/04 20:23:18;;;;;;;3.00;2.78;;;9.10;99.90;;;;;;5059077;28;20174;-79
2023/01/04 20:25:46;;;;;;;3.78;3.47;;;9.20;99.90;;;;;;5059683;28;20532;-79
2023/01/04 20:28:13;;;;;;;1.10;1.10;;;9.20;99.90;;;;;;5059096;28;20174;-79
2023/01/04 20:30:39;;;;;;;1.50;1.40;;;9.20;99.90;;;;;;5059411;28;20178;-79
2023/01/04 20:33:06;;;;;;;1.00;1.00;;;9.20;99.90;;;;;;5059556;28;20191;-79
2023/01/04 20:35:32;;;;;;;1.00;1.00;;;9.20;99.90;;;;;;5058596;28;20177;-79
2023/01/04 20:37:58;;;;;;;1.25;1.25;;;9.20;99.90;;;;;;5057707;28;20205;-79
2023/01/04 20:40:24;;;;;;;1.00;1.00;;;9.20;99.90;;;;;;5058223;28;20177;-79
2023/01/04 20:45:46;;;;;;;1.00;1.00;;;9.20;99.90;;;;;;5059300;28;20249;-80
2023/01/04 20:48:12;;;;;;;1.00;1.00;;;9.20;99.90;;;;;;5057368;28;20182;-79
2023/01/04 20:50:38;;;;;;;0.93;0.93;;;9.20;99.90;;;;;;5057139;28;20178;-79
2023/01/04 20:53:15;;;;;;;1.20;1.10;;;9.20;99.90;;;;;;5058098;28;20672;-79
2023/01/04 20:55:43;;;;;;;1.38;0.98;;;9.20;99.90;;;;;;5057719;28;20209;-79
2023/01/04 20:58:11;;;;;;;1.23;1.23;;;9.20;99.90;;;;;;5057663;28;20742;-79
2023/01/04 21:00:38;;;;;;;1.40;1.30;;;9.10;99.90;;;;;;5057659;28;20185;-79
2023/01/04 21:03:05;;;;;;;0.98;0.98;;;9.10;99.90;;;;;;5057564;28;20170;-79
2023/01/04 21:05:35;;;;;;;0.90;0.90;;;9.20;99.90;;;;;;5058038;28;20178;-79
2023/01/04 21:08:01;;;;;;;0.80;0.80;;;9.20;99.90;;;;;;5057856;28;20213;-79
2023/01/04 21:10:26;;;;;;;0.90;0.90;;;9.20;99.90;;;;;;5057806;28;20174;-79
2023/01/04 21:12:52;;;;;;;0.80;0.80;;;9.20;99.90;;;;;;5059057;28;20178;-79
2023/01/04 21:15:17;;;;;;;0.90;0.90;;;9.20;99.90;;;;;;5057044;28;20166;-79
2023/01/04 21:17:43;;;;;;;0.90;0.90;;;9.20;99.90;;;;;;5057794;28;20198;-79
2023/01/04 21:20:09;;;;;;;0.85;0.82;;;9.20;99.90;;;;;;5057809;28;20256;-79
2023/01/04 21:22:34;;;;;;;0.80;0.80;;;9.20;99.90;;;;;;5058274;28;20174;-79
2023/01/04 21:25:00;;;;;;;1.00;1.00;;;9.30;99.90;;;;;;5057467;28;20194;-79
2023/01/04 21:27:26;;;;;;;1.10;1.10;;;9.30;99.90;;;;;;5056860;28;20205;-79
2023/01/04 21:29:51;;;;;;;0.90;0.90;;;9.30;99.90;;;;;;5058930;28;20174;-79
2023/01/04 21:32:17;;;;;;;1.10;1.00;;;9.20;99.90;;;;;;5056485;28;20265;-79
2023/01/04 21:34:42;;;;;;;1.95;1.00;;;9.20;99.90;;;;;;5056668;28;20210;-79
2023/01/04 21:37:08;;;;;;;1.08;1.08;;;9.20;99.90;;;;;;5057026;28;20198;-79
2023/01/04 21:39:34;;;;;;;0.90;0.90;;;9.20;99.90;;;;;;5056496;28;20174;-79
2023/01/04 21:42:00;;;;;;;1.08;1.05;;;9.20;99.90;;;;;;5055809;28;20265;-79
2023/01/04 21:44:25;;;;;;;1.30;1.20;;;9.20;99.90;;;;;;5057632;28;20228;-79
2023/01/04 21:46:51;;;;;;;1.15;1.15;;;9.20;99.90;;;;;;5056227;28;20287;-79
2023/01/04 21:49:16;;;;;;;1.73;1.20;;;9.20;99.90;;;;;;5057257;28;20212;-79
2023/01/04 21:51:42;;;;;;;1.00;1.00;;;9.20;99.90;;;;;;5055972;28;20170;-79
2023/01/04 21:54:07;;;;;;;0.82;0.82;;;9.20;99.90;;;;;;5055943;28;20216;-79
2023/01/04 21:56:33;;;;;;;0.90;0.90;;;9.20;99.90;;;;;;5058678;28;20248;-79
2023/01/04 21:58:59;;;;;;;0.80;0.80;;;9.20;99.90;;;;;;5056033;28;20178;-79
2023/01/04 22:01:26;;;;;;;0.73;0.73;;;9.20;99.90;;;;;;5055741;28;20178;-79
2023/01/04 22:03:52;;;;;;;0.60;0.60;;;9.20;99.90;;;;;;5057490;28;20652;-79
2023/01/04 22:06:19;;;;;;;0.80;0.60;;;9.20;99.90;;;;;;5056577;28;20210;-79
2023/01/04 22:08:45;;;;;;;0.73;0.57;;;9.20;99.90;;;;;;5055106;28;20183;-80
2023/01/04 22:11:18;;;;;;;0.70;0.70;;;9.20;99.90;;;;;;5055127;28;20220;-80
2023/01/04 22:13:44;;;;;;;0.68;0.63;;;9.20;99.90;;;;;;5054428;28;20168;-79
2023/01/04 22:16:12;;;;;;;0.70;0.70;;;9.20;99.90;;;;;;5055063;28;20190;-79
2023/01/04 22:18:38;;;;;;;0.60;0.60;;;9.20;99.90;;;;;;5053676;28;20178;-79
2023/01/04 22:21:09;;;;;;;2.03;0.73;;;9.20;99.90;;;;;;5054009;28;20273;-79
2023/01/04 22:23:35;;;;;;;2.15;0.68;;;9.30;99.90;;;;;;5053496;28;20177;-79
2023/01/04 22:26:01;;;;;;;0.63;0.57;;;9.30;99.90;;;;;;5053363;28;20174;-78
2023/01/04 22:28:35;;;;;;;2.42;0.77;;;9.30;99.90;;;;;;5054943;28;20257;-78
2023/01/04 22:31:09;;;;;;;1.02;0.68;;;9.30;99.90;;;;;;5054715;28;20162;-79
2023/01/04 22:33:53;;;;;;;2.08;1.00;;;9.30;99.90;;;;;;5053387;28;20261;-79
2023/01/04 22:36:30;;;;;;;1.98;0.90;;;9.30;99.90;;;;;;5053193;28;20255;-79
2023/01/04 22:39:27;;;;;;;1.90;0.82;;;9.30;99.90;;;;;;5055324;28;20173;-79
2023/01/04 22:41:52;;;;;;;1.90;0.80;;;9.30;99.90;;;;;;5052895;28;20173;-79
2023/01/04 22:44:18;;;;;;;2.42;1.08;;;9.20;99.90;;;;;;5054678;28;20182;-79
2023/01/04 22:46:43;;;;;;;3.00;1.10;;;9.30;99.90;;;;;;5054456;28;20210;-79
2023/01/04 22:49:32;;;;;;;0.95;0.73;;;9.30;99.90;;;;;;5053306;28;20178;-79
2023/01/04 22:51:58;;;;;;;1.73;0.90;;;9.30;99.90;;;;;;5054480;28;20170;-79
2023/01/04 22:54:23;;;;;;;1.30;0.80;;;9.30;99.90;;;;;;5053729;28;20174;-79
2023/01/04 22:56:49;;;;;;;2.08;0.90;;;9.30;99.90;;;;;;5052964;28;20590;-79
2023/01/04 22:59:15;;;;;;;3.03;1.00;;;9.30;99.90;;;;;;5053206;28;20173;-79
2023/01/04 23:02:33;;;;;;;0.85;0.77;;;9.30;99.90;;;;;;5052704;28;20265;-79
2023/01/04 23:04:59;;;;;;;1.38;0.95;;;9.30;99.90;;;;;;5053686;28;20171;-79
2023/01/04 23:07:24;;;;;;;3.33;1.15;;;9.30;99.90;;;;;;5053447;28;20216;-79
2023/01/04 23:09:50;;;;;;;1.75;0.95;;;9.40;99.90;;;;;;5053009;28;20192;-79
2023/01/04 23:12:16;;;;;;;1.92;1.08;;;9.40;99.90;;;;;;5052671;28;20235;-79
2023/01/04 23:14:41;;;;;;;2.72;1.00;;;9.30;99.90;;;;;;5052718;28;20174;-79
2023/01/04 23:17:07;;;;;;;1.95;0.82;;;9.40;99.90;;;;;;5052768;28;20583;-79
2023/01/04 23:19:33;;;;;;;1.38;0.98;;;9.40;99.90;;;;;;5052944;28;20175;-79
2023/01/04 23:21:59;;;;;;;1.52;1.00;;;9.40;99.90;;;;;;5053956;28;20174;-79
2023/01/04 23:24:43;;;;;;;3.30;1.10;;;9.40;99.90;;;;;;5053054;28;20182;-79
2023/01/04 23:27:08;;;;;;;1.25;1.10;;;9.40;99.90;;;;;;5053135;28;20210;-79
2023/01/04 23:29:38;;;;;;;2.08;1.10;;;9.40;99.90;;;;;;5052916;28;20220;-79
2023/01/04 23:32:04;;;;;;;2.28;1.00;;;9.40;99.90;;;;;;5054127;28;20159;-79
2023/01/04 23:34:29;;;;;;;1.30;1.10;;;9.40;99.90;;;;;;5053661;28;20240;-79
2023/01/04 23:37:15;;;;;;;2.35;1.30;;;9.40;99.90;;;;;;5052988;28;20209;-79
2023/01/04 23:39:41;;;;;;;2.40;1.38;;;9.40;99.90;;;;;;5053669;28;20166;-79
2023/01/04 23:42:07;;;;;;;2.03;1.15;;;9.40;99.90;;;;;;5053817;28;20208;-79
2023/01/04 23:44:33;;;;;;;1.27;1.13;;;9.40;99.90;;;;;;5052919;28;20651;-79
2023/01/04 23:47:04;;;;;;;2.40;1.00;;;9.40;99.90;;;;;;5052390;28;20293;-79
2023/01/04 23:49:32;;;;;;;2.05;1.17;;;9.40;99.90;;;;;;5053808;28;20174;-79
2023/01/04 23:52:03;;;;;;;2.22;1.20;;;9.40;99.90;;;;;;5052802;28;20189;-79
2023/01/04 23:54:29;;;;;;;4.47;1.42;;;9.30;99.90;;;;;;5052962;28;20172;-79
2023/01/04 23:56:55;;;;;;;2.75;1.20;;;9.40;99.90;;;;;;5052578;28;20213;-79
2023/01/04 23:59:22;;;;;;;1.85;1.00;;;9.40;99.90;;;;;;5053066;28;20189;-79
